sensor_id;sensor_type;location;lat;lon;timestamp;P1;durP1;ratioP1;P2;durP2;ratioP2
29954;SDS011;68448;51.188;6.868;2023-07-29T00:01:35;5.10;;;3.77;;
29954;SDS011;68448;51.188;6.868;2023-07-29T00:04:02;5.50;;;3.73;;
29954;SDS011;68448;51.188;6.868;2023-07-29T00:06:31;8.03;;;4.10;;
29954;SDS011;68448;51.188;6.868;2023-07-29T00:08:58;6.27;;;4.33;;
29954;SDS011;68448;51.188;6.868;2023-07-29T00:11:25;6.00;;;4.87;;
29954;SDS011;68448;51.188;6.868;2023-07-29T00:13:52;14.13;;;5.33;;
29954;SDS011;68448;51.188;6.868;2023-07-29T00:16:19;12.23;;;5.00;;
29954;SDS011;68448;51.188;6.868;2023-07-29T00:18:47;5.00;;;4.13;;
29954;SDS011;68448;51.188;6.868;2023-07-29T00:21:14;5.37;;;4.53;;
29954;SDS011;68448;51.188;6.868;2023-07-29T00:23:42;7.50;;;4.70;;
29954;SDS011;68448;51.188;6.868;2023-07-29T00:26:09;6.20;;;4.53;;
29954;SDS011;68448;51.188;6.868;2023-07-29T00:28:36;7.13;;;5.53;;
29954;SDS011;68448;51.188;6.868;2023-07-29T00:31:04;5.47;;;4.70;;
29954;SDS011;68448;51.188;6.868;2023-07-29T00:33:33;5.90;;;4.73;;
29954;SDS011;68448;51.188;6.868;2023-07-29T00:36:00;7.93;;;4.93;;
29954;SDS011;68448;51.188;6.868;2023-07-29T00:38:27;13.40;;;5.17;;
29954;SDS011;68448;51.188;6.868;2023-07-29T00:40:56;8.83;;;4.93;;
29954;SDS011;68448;51.188;6.868;2023-07-29T00:43:23;7.10;;;4.83;;
29954;SDS011;68448;51.188;6.868;2023-07-29T00:45:51;8.60;;;5.40;;
29954;SDS011;68448;51.188;6.868;2023-07-29T00:48:18;8.67;;;5.50;;
29954;SDS011;68448;51.188;6.868;2023-07-29T00:50:45;7.73;;;5.20;;
29954;SDS011;68448;51.188;6.868;2023-07-29T00:53:13;9.57;;;5.50;;
29954;SDS011;68448;51.188;6.868;2023-07-29T00:55:40;10.10;;;6.07;;
29954;SDS011;68448;51.188;6.868;2023-07-29T00:58:09;9.17;;;5.20;;
29954;SDS011;68448;51.188;6.868;2023-07-29T01:00:36;7.60;;;5.87;;
29954;SDS011;68448;51.188;6.868;2023-07-29T01:03:03;14.70;;;5.13;;
29954;SDS011;68448;51.188;6.868;2023-07-29T01:05:32;11.20;;;5.50;;
29954;SDS011;68448;51.188;6.868;2023-07-29T01:08:03;5.30;;;4.80;;
29954;SDS011;68448;51.188;6.868;2023-07-29T01:10:39;7.23;;;5.80;;
29954;SDS011;68448;51.188;6.868;2023-07-29T01:13:11;7.27;;;5.17;;
29954;SDS011;68448;51.188;6.868;2023-07-29T01:15:41;5.33;;;4.80;;
29954;SDS011;68448;51.188;6.868;2023-07-29T01:18:11;6.17;;;5.40;;
29954;SDS011;68448;51.188;6.868;2023-07-29T01:20:42;8.80;;;5.23;;
29954;SDS011;68448;51.188;6.868;2023-07-29T01:23:11;5.53;;;5.03;;
29954;SDS011;68448;51.188;6.868;2023-07-29T01:25:39;7.33;;;4.97;;
29954;SDS011;68448;51.188;6.868;2023-07-29T01:28:06;9.53;;;5.40;;
29954;SDS011;68448;51.188;6.868;2023-07-29T01:30:37;5.30;;;4.53;;
29954;SDS011;68448;51.188;6.868;2023-07-29T01:33:08;9.90;;;5.23;;
29954;SDS011;68448;51.188;6.868;2023-07-29T01:35:41;6.67;;;4.67;;
29954;SDS011;68448;51.188;6.868;2023-07-29T01:38:09;5.27;;;4.77;;
29954;SDS011;68448;51.188;6.868;2023-07-29T01:40:37;5.53;;;4.80;;
29954;SDS011;68448;51.188;6.868;2023-07-29T01:43:06;13.00;;;5.10;;
29954;SDS011;68448;51.188;6.868;2023-07-29T01:45:33;6.40;;;5.07;;
29954;SDS011;68448;51.188;6.868;2023-07-29T01:48:00;5.30;;;4.80;;
29954;SDS011;68448;51.188;6.868;2023-07-29T01:50:28;5.57;;;4.80;;
29954;SDS011;68448;51.188;6.868;2023-07-29T01:52:56;11.23;;;5.27;;
29954;SDS011;68448;51.188;6.868;2023-07-29T01:55:23;6.13;;;5.20;;
29954;SDS011;68448;51.188;6.868;2023-07-29T01:57:50;5.13;;;4.63;;
29954;SDS011;68448;51.188;6.868;2023-07-29T02:02:48;6.20;;;4.83;;
29954;SDS011;68448;51.188;6.868;2023-07-29T02:05:15;10.80;;;5.30;;
29954;SDS011;68448;51.188;6.868;2023-07-29T02:07:42;12.47;;;4.63;;
29954;SDS011;68448;51.188;6.868;2023-07-29T02:10:09;7.30;;;5.20;;
29954;SDS011;68448;51.188;6.868;2023-07-29T02:12:37;8.27;;;5.40;;
29954;SDS011;68448;51.188;6.868;2023-07-29T02:15:04;7.87;;;5.23;;
29954;SDS011;68448;51.188;6.868;2023-07-29T02:17:31;8.83;;;5.10;;
29954;SDS011;68448;51.188;6.868;2023-07-29T02:20:00;7.60;;;5.37;;
29954;SDS011;68448;51.188;6.868;2023-07-29T02:22:27;8.53;;;5.27;;
29954;SDS011;68448;51.188;6.868;2023-07-29T02:24:54;7.40;;;5.90;;
29954;SDS011;68448;51.188;6.868;2023-07-29T02:27:21;6.17;;;5.40;;
29954;SDS011;68448;51.188;6.868;2023-07-29T02:29:49;6.10;;;5.30;;
29954;SDS011;68448;51.188;6.868;2023-07-29T02:32:16;7.20;;;5.07;;
29954;SDS011;68448;51.188;6.868;2023-07-29T02:34:43;5.77;;;4.87;;
29954;SDS011;68448;51.188;6.868;2023-07-29T02:37:12;6.83;;;5.53;;
29954;SDS011;68448;51.188;6.868;2023-07-29T02:39:39;6.57;;;5.67;;
29954;SDS011;68448;51.188;6.868;2023-07-29T02:42:06;5.67;;;5.17;;
29954;SDS011;68448;51.188;6.868;2023-07-29T02:44:33;6.83;;;5.03;;
29954;SDS011;68448;51.188;6.868;2023-07-29T02:47:00;7.60;;;6.27;;
29954;SDS011;68448;51.188;6.868;2023-07-29T02:49:27;7.20;;;5.83;;
29954;SDS011;68448;51.188;6.868;2023-07-29T02:51:54;10.17;;;5.60;;
29954;SDS011;68448;51.188;6.868;2023-07-29T02:54:23;7.50;;;5.90;;
29954;SDS011;68448;51.188;6.868;2023-07-29T02:56:50;6.63;;;6.03;;
29954;SDS011;68448;51.188;6.868;2023-07-29T02:59:17;8.47;;;6.03;;
29954;SDS011;68448;51.188;6.868;2023-07-29T03:01:44;8.03;;;5.50;;
29954;SDS011;68448;51.188;6.868;2023-07-29T03:04:11;6.07;;;5.23;;
29954;SDS011;68448;51.188;6.868;2023-07-29T03:06:38;7.90;;;5.20;;
29954;SDS011;68448;51.188;6.868;2023-07-29T03:09:06;6.17;;;4.57;;
29954;SDS011;68448;51.188;6.868;2023-07-29T03:11:34;5.77;;;5.00;;
29954;SDS011;68448;51.188;6.868;2023-07-29T03:14:01;7.03;;;5.40;;
29954;SDS011;68448;51.188;6.868;2023-07-29T03:16:29;5.50;;;4.50;;
29954;SDS011;68448;51.188;6.868;2023-07-29T03:18:58;7.20;;;4.30;;
29954;SDS011;68448;51.188;6.868;2023-07-29T03:21:25;4.83;;;4.00;;
29954;SDS011;68448;51.188;6.868;2023-07-29T03:23:53;8.93;;;4.47;;
29954;SDS011;68448;51.188;6.868;2023-07-29T03:26:20;6.30;;;4.60;;
29954;SDS011;68448;51.188;6.868;2023-07-29T03:28:48;5.50;;;4.20;;
29954;SDS011;68448;51.188;6.868;2023-07-29T03:31:15;7.87;;;4.30;;
29954;SDS011;68448;51.188;6.868;2023-07-29T03:33:43;5.27;;;4.40;;
29954;SDS011;68448;51.188;6.868;2023-07-29T03:36:10;4.87;;;4.47;;
29954;SDS011;68448;51.188;6.868;2023-07-29T03:38:37;5.97;;;5.07;;
29954;SDS011;68448;51.188;6.868;2023-07-29T03:41:04;8.63;;;4.83;;
29954;SDS011;68448;51.188;6.868;2023-07-29T03:43:31;5.33;;;4.77;;
29954;SDS011;68448;51.188;6.868;2023-07-29T03:46:02;8.07;;;4.83;;
29954;SDS011;68448;51.188;6.868;2023-07-29T03:48:29;7.33;;;4.63;;
29954;SDS011;68448;51.188;6.868;2023-07-29T03:50:57;7.63;;;4.77;;
29954;SDS011;68448;51.188;6.868;2023-07-29T03:53:24;8.50;;;4.90;;
29954;SDS011;68448;51.188;6.868;2023-07-29T03:55:51;11.73;;;5.07;;
29954;SDS011;68448;51.188;6.868;2023-07-29T03:58:18;14.37;;;6.10;;
29954;SDS011;68448;51.188;6.868;2023-07-29T04:00:45;5.77;;;4.67;;
29954;SDS011;68448;51.188;6.868;2023-07-29T04:03:14;5.27;;;4.47;;
29954;SDS011;68448;51.188;6.868;2023-07-29T04:05:42;14.93;;;5.07;;
29954;SDS011;68448;51.188;6.868;2023-07-29T04:08:09;22.20;;;5.60;;
29954;SDS011;68448;51.188;6.868;2023-07-29T04:10:36;12.13;;;5.83;;
29954;SDS011;68448;51.188;6.868;2023-07-29T04:13:03;10.87;;;5.97;;
29954;SDS011;68448;51.188;6.868;2023-07-29T04:15:30;8.40;;;5.80;;
29954;SDS011;68448;51.188;6.868;2023-07-29T04:17:57;9.87;;;6.20;;
29954;SDS011;68448;51.188;6.868;2023-07-29T04:20:26;14.60;;;6.47;;
29954;SDS011;68448;51.188;6.868;2023-07-29T04:22:53;9.10;;;5.87;;
29954;SDS011;68448;51.188;6.868;2023-07-29T04:25:20;10.20;;;6.10;;
29954;SDS011;68448;51.188;6.868;2023-07-29T04:27:47;6.73;;;5.00;;
29954;SDS011;68448;51.188;6.868;2023-07-29T04:30:14;8.47;;;5.47;;
29954;SDS011;68448;51.188;6.868;2023-07-29T04:32:41;8.97;;;5.80;;
29954;SDS011;68448;51.188;6.868;2023-07-29T04:35:09;9.93;;;6.37;;
29954;SDS011;68448;51.188;6.868;2023-07-29T04:37:37;6.17;;;5.10;;
29954;SDS011;68448;51.188;6.868;2023-07-29T04:40:05;6.13;;;5.53;;
29954;SDS011;68448;51.188;6.868;2023-07-29T04:42:32;8.90;;;5.43;;
29954;SDS011;68448;51.188;6.868;2023-07-29T04:45:01;8.43;;;5.33;;
29954;SDS011;68448;51.188;6.868;2023-07-29T04:47:31;8.20;;;5.10;;
29954;SDS011;68448;51.188;6.868;2023-07-29T04:49:58;8.80;;;5.50;;
29954;SDS011;68448;51.188;6.868;2023-07-29T04:52:25;4.83;;;4.23;;
29954;SDS011;68448;51.188;6.868;2023-07-29T04:54:54;4.80;;;4.30;;
29954;SDS011;68448;51.188;6.868;2023-07-29T04:57:21;10.70;;;5.40;;
29954;SDS011;68448;51.188;6.868;2023-07-29T04:59:48;8.93;;;5.00;;
29954;SDS011;68448;51.188;6.868;2023-07-29T05:02:15;9.03;;;4.47;;
29954;SDS011;68448;51.188;6.868;2023-07-29T05:04:42;6.33;;;4.57;;
29954;SDS011;68448;51.188;6.868;2023-07-29T05:07:09;7.93;;;4.80;;
29954;SDS011;68448;51.188;6.868;2023-07-29T05:09:36;6.10;;;4.80;;
29954;SDS011;68448;51.188;6.868;2023-07-29T05:12:06;5.50;;;4.10;;
29954;SDS011;68448;51.188;6.868;2023-07-29T05:14:33;8.67;;;4.90;;
29954;SDS011;68448;51.188;6.868;2023-07-29T05:17:00;10.67;;;4.37;;
29954;SDS011;68448;51.188;6.868;2023-07-29T05:19:27;6.43;;;4.97;;
29954;SDS011;68448;51.188;6.868;2023-07-29T05:21:54;6.47;;;4.63;;
29954;SDS011;68448;51.188;6.868;2023-07-29T05:24:21;5.37;;;4.80;;
29954;SDS011;68448;51.188;6.868;2023-07-29T05:26:48;9.60;;;4.70;;
29954;SDS011;68448;51.188;6.868;2023-07-29T05:29:17;8.03;;;5.30;;
29954;SDS011;68448;51.188;6.868;2023-07-29T05:31:44;8.63;;;4.80;;
29954;SDS011;68448;51.188;6.868;2023-07-29T05:34:11;7.57;;;4.87;;
29954;SDS011;68448;51.188;6.868;2023-07-29T05:36:39;5.70;;;4.93;;
29954;SDS011;68448;51.188;6.868;2023-07-29T05:39:06;7.70;;;4.03;;
29954;SDS011;68448;51.188;6.868;2023-07-29T05:41:33;7.70;;;5.13;;
29954;SDS011;68448;51.188;6.868;2023-07-29T05:44:00;6.80;;;4.37;;
29954;SDS011;68448;51.188;6.868;2023-07-29T05:46:29;5.13;;;4.30;;
29954;SDS011;68448;51.188;6.868;2023-07-29T05:48:56;5.47;;;4.40;;
29954;SDS011;68448;51.188;6.868;2023-07-29T05:51:23;7.23;;;4.60;;
29954;SDS011;68448;51.188;6.868;2023-07-29T05:53:50;5.90;;;4.10;;
29954;SDS011;68448;51.188;6.868;2023-07-29T05:56:17;9.73;;;4.70;;
29954;SDS011;68448;51.188;6.868;2023-07-29T05:58:44;6.67;;;4.87;;
29954;SDS011;68448;51.188;6.868;2023-07-29T06:01:11;6.63;;;4.30;;
29954;SDS011;68448;51.188;6.868;2023-07-29T06:03:40;5.30;;;4.37;;
29954;SDS011;68448;51.188;6.868;2023-07-29T06:06:07;4.53;;;4.13;;
29954;SDS011;68448;51.188;6.868;2023-07-29T06:08:34;3.63;;;3.33;;
29954;SDS011;68448;51.188;6.868;2023-07-29T06:11:01;5.20;;;4.07;;
29954;SDS011;68448;51.188;6.868;2023-07-29T06:13:28;5.20;;;4.03;;
29954;SDS011;68448;51.188;6.868;2023-07-29T06:15:55;4.87;;;4.03;;
29954;SDS011;68448;51.188;6.868;2023-07-29T06:18:23;4.00;;;3.60;;
29954;SDS011;68448;51.188;6.868;2023-07-29T06:20:52;8.00;;;4.10;;
29954;SDS011;68448;51.188;6.868;2023-07-29T06:23:19;5.03;;;3.93;;
29954;SDS011;68448;51.188;6.868;2023-07-29T06:25:46;4.40;;;3.20;;
29954;SDS011;68448;51.188;6.868;2023-07-29T06:28:13;3.30;;;2.57;;
29954;SDS011;68448;51.188;6.868;2023-07-29T06:30:40;4.03;;;3.27;;
29954;SDS011;68448;51.188;6.868;2023-07-29T06:33:08;2.10;;;1.90;;
29954;SDS011;68448;51.188;6.868;2023-07-29T06:35:35;2.60;;;2.00;;
29954;SDS011;68448;51.188;6.868;2023-07-29T06:38:03;4.57;;;2.80;;
29954;SDS011;68448;51.188;6.868;2023-07-29T06:40:30;4.20;;;2.27;;
29954;SDS011;68448;51.188;6.868;2023-07-29T06:42:57;3.53;;;2.20;;
29954;SDS011;68448;51.188;6.868;2023-07-29T06:45:24;4.20;;;2.10;;
29954;SDS011;68448;51.188;6.868;2023-07-29T06:47:51;2.90;;;2.53;;
29954;SDS011;68448;51.188;6.868;2023-07-29T06:50:19;2.00;;;1.80;;
29954;SDS011;68448;51.188;6.868;2023-07-29T06:52:46;3.10;;;2.03;;
29954;SDS011;68448;51.188;6.868;2023-07-29T06:55:14;2.37;;;2.17;;
29954;SDS011;68448;51.188;6.868;2023-07-29T06:57:41;3.40;;;2.50;;
29954;SDS011;68448;51.188;6.868;2023-07-29T07:00:09;3.17;;;2.57;;
29954;SDS011;68448;51.188;6.868;2023-07-29T07:02:36;3.00;;;2.20;;
29954;SDS011;68448;51.188;6.868;2023-07-29T07:05:04;3.07;;;2.70;;
29954;SDS011;68448;51.188;6.868;2023-07-29T07:07:43;3.23;;;2.60;;
29954;SDS011;68448;51.188;6.868;2023-07-29T07:10:10;2.63;;;2.43;;
29954;SDS011;68448;51.188;6.868;2023-07-29T07:12:38;5.30;;;2.60;;
29954;SDS011;68448;51.188;6.868;2023-07-29T07:15:06;5.80;;;2.80;;
29954;SDS011;68448;51.188;6.868;2023-07-29T07:17:33;3.80;;;2.70;;
29954;SDS011;68448;51.188;6.868;2023-07-29T07:20:00;4.30;;;2.33;;
29954;SDS011;68448;51.188;6.868;2023-07-29T07:22:28;3.30;;;2.90;;
29954;SDS011;68448;51.188;6.868;2023-07-29T07:24:55;4.37;;;2.57;;
29954;SDS011;68448;51.188;6.868;2023-07-29T07:27:22;4.00;;;2.23;;
29954;SDS011;68448;51.188;6.868;2023-07-29T07:29:50;6.00;;;2.80;;
29954;SDS011;68448;51.188;6.868;2023-07-29T07:32:18;3.30;;;2.77;;
29954;SDS011;68448;51.188;6.868;2023-07-29T07:34:45;4.20;;;2.57;;
29954;SDS011;68448;51.188;6.868;2023-07-29T07:37:12;2.67;;;2.40;;
29954;SDS011;68448;51.188;6.868;2023-07-29T07:39:39;5.20;;;2.30;;
29954;SDS011;68448;51.188;6.868;2023-07-29T07:42:06;3.23;;;2.73;;
29954;SDS011;68448;51.188;6.868;2023-07-29T07:44:33;2.40;;;2.00;;
29954;SDS011;68448;51.188;6.868;2023-07-29T07:47:02;2.90;;;2.40;;
29954;SDS011;68448;51.188;6.868;2023-07-29T07:49:30;4.90;;;2.23;;
29954;SDS011;68448;51.188;6.868;2023-07-29T07:51:57;2.13;;;2.00;;
29954;SDS011;68448;51.188;6.868;2023-07-29T07:54:25;3.30;;;2.40;;
29954;SDS011;68448;51.188;6.868;2023-07-29T07:56:52;3.30;;;2.47;;
29954;SDS011;68448;51.188;6.868;2023-07-29T07:59:19;3.17;;;2.33;;
29954;SDS011;68448;51.188;6.868;2023-07-29T08:01:46;3.30;;;2.37;;
29954;SDS011;68448;51.188;6.868;2023-07-29T08:04:14;2.20;;;1.90;;
29954;SDS011;68448;51.188;6.868;2023-07-29T08:06:41;3.13;;;2.20;;
29954;SDS011;68448;51.188;6.868;2023-07-29T08:09:09;2.10;;;1.90;;
29954;SDS011;68448;51.188;6.868;2023-07-29T08:11:36;5.73;;;1.73;;
29954;SDS011;68448;51.188;6.868;2023-07-29T08:14:03;3.20;;;1.80;;
29954;SDS011;68448;51.188;6.868;2023-07-29T08:16:30;2.07;;;1.97;;
29954;SDS011;68448;51.188;6.868;2023-07-29T08:18:57;2.07;;;1.70;;
29954;SDS011;68448;51.188;6.868;2023-07-29T08:21:26;2.30;;;1.97;;
29954;SDS011;68448;51.188;6.868;2023-07-29T08:23:53;1.77;;;1.67;;
29954;SDS011;68448;51.188;6.868;2023-07-29T08:26:20;2.30;;;1.70;;
29954;SDS011;68448;51.188;6.868;2023-07-29T08:28:47;1.80;;;1.63;;
29954;SDS011;68448;51.188;6.868;2023-07-29T08:31:15;1.50;;;1.40;;
29954;SDS011;68448;51.188;6.868;2023-07-29T08:33:42;1.70;;;1.60;;
29954;SDS011;68448;51.188;6.868;2023-07-29T08:36:09;2.50;;;1.30;;
29954;SDS011;68448;51.188;6.868;2023-07-29T08:38:37;1.40;;;1.30;;
29954;SDS011;68448;51.188;6.868;2023-07-29T08:41:06;2.53;;;1.37;;
29954;SDS011;68448;51.188;6.868;2023-07-29T08:43:38;2.47;;;1.30;;
29954;SDS011;68448;51.188;6.868;2023-07-29T08:46:05;1.97;;;1.23;;
29954;SDS011;68448;51.188;6.868;2023-07-29T08:48:34;1.37;;;1.27;;
29954;SDS011;68448;51.188;6.868;2023-07-29T08:51:03;1.53;;;1.30;;
29954;SDS011;68448;51.188;6.868;2023-07-29T08:53:30;1.47;;;1.37;;
29954;SDS011;68448;51.188;6.868;2023-07-29T08:55:59;1.40;;;1.30;;
29954;SDS011;68448;51.188;6.868;2023-07-29T08:58:26;1.60;;;1.30;;
29954;SDS011;68448;51.188;6.868;2023-07-29T09:00:54;1.60;;;1.27;;
29954;SDS011;68448;51.188;6.868;2023-07-29T09:03:21;2.10;;;1.30;;
29954;SDS011;68448;51.188;6.868;2023-07-29T09:05:48;2.50;;;1.77;;
29954;SDS011;68448;51.188;6.868;2023-07-29T09:08:15;4.20;;;1.60;;
29954;SDS011;68448;51.188;6.868;2023-07-29T09:10:43;2.13;;;1.50;;
29954;SDS011;68448;51.188;6.868;2023-07-29T09:13:11;1.77;;;1.37;;
29954;SDS011;68448;51.188;6.868;2023-07-29T09:15:38;1.17;;;1.13;;
29954;SDS011;68448;51.188;6.868;2023-07-29T09:18:09;1.33;;;1.23;;
29954;SDS011;68448;51.188;6.868;2023-07-29T09:20:36;1.60;;;1.50;;
29954;SDS011;68448;51.188;6.868;2023-07-29T09:23:06;1.70;;;1.40;;
29954;SDS011;68448;51.188;6.868;2023-07-29T09:25:33;1.47;;;1.37;;
29954;SDS011;68448;51.188;6.868;2023-07-29T09:28:01;1.33;;;1.23;;
29954;SDS011;68448;51.188;6.868;2023-07-29T09:30:29;1.67;;;1.50;;
29954;SDS011;68448;51.188;6.868;2023-07-29T09:32:57;1.93;;;1.37;;
29954;SDS011;68448;51.188;6.868;2023-07-29T09:35:25;1.57;;;1.47;;
29954;SDS011;68448;51.188;6.868;2023-07-29T09:37:53;1.63;;;1.53;;
29954;SDS011;68448;51.188;6.868;2023-07-29T09:40:20;2.40;;;1.13;;
29954;SDS011;68448;51.188;6.868;2023-07-29T09:42:47;1.40;;;1.30;;
29954;SDS011;68448;51.188;6.868;2023-07-29T09:45:18;2.40;;;1.40;;
29954;SDS011;68448;51.188;6.868;2023-07-29T09:47:47;1.77;;;1.63;;
29954;SDS011;68448;51.188;6.868;2023-07-29T09:50:14;2.37;;;1.10;;
29954;SDS011;68448;51.188;6.868;2023-07-29T09:52:41;3.27;;;1.53;;
29954;SDS011;68448;51.188;6.868;2023-07-29T09:55:09;1.53;;;1.43;;
29954;SDS011;68448;51.188;6.868;2023-07-29T09:57:37;2.10;;;1.63;;
29954;SDS011;68448;51.188;6.868;2023-07-29T10:00:04;2.40;;;1.70;;
29954;SDS011;68448;51.188;6.868;2023-07-29T10:02:31;1.80;;;1.70;;
29954;SDS011;68448;51.188;6.868;2023-07-29T10:05:01;2.70;;;1.60;;
29954;SDS011;68448;51.188;6.868;2023-07-29T10:07:28;2.10;;;1.50;;
29954;SDS011;68448;51.188;6.868;2023-07-29T10:09:55;1.57;;;1.47;;
29954;SDS011;68448;51.188;6.868;2023-07-29T10:12:22;2.63;;;1.83;;
29954;SDS011;68448;51.188;6.868;2023-07-29T10:14:51;1.70;;;1.60;;
29954;SDS011;68448;51.188;6.868;2023-07-29T10:17:19;2.63;;;1.43;;
29954;SDS011;68448;51.188;6.868;2023-07-29T10:19:47;3.00;;;1.77;;
29954;SDS011;68448;51.188;6.868;2023-07-29T10:22:16;1.60;;;1.50;;
29954;SDS011;68448;51.188;6.868;2023-07-29T10:24:45;1.70;;;1.60;;
29954;SDS011;68448;51.188;6.868;2023-07-29T10:27:14;2.30;;;1.77;;
29954;SDS011;68448;51.188;6.868;2023-07-29T10:29:44;4.90;;;1.70;;
29954;SDS011;68448;51.188;6.868;2023-07-29T10:32:12;1.70;;;1.60;;
29954;SDS011;68448;51.188;6.868;2023-07-29T10:34:39;1.87;;;1.50;;
29954;SDS011;68448;51.188;6.868;2023-07-29T10:37:09;1.47;;;1.27;;
29954;SDS011;68448;51.188;6.868;2023-07-29T10:39:40;1.40;;;1.30;;
29954;SDS011;68448;51.188;6.868;2023-07-29T10:42:18;2.93;;;2.20;;
29954;SDS011;68448;51.188;6.868;2023-07-29T10:44:49;2.83;;;2.00;;
29954;SDS011;68448;51.188;6.868;2023-07-29T10:47:17;1.70;;;1.60;;
29954;SDS011;68448;51.188;6.868;2023-07-29T10:49:45;7.67;;;1.87;;
29954;SDS011;68448;51.188;6.868;2023-07-29T10:52:13;2.40;;;1.50;;
29954;SDS011;68448;51.188;6.868;2023-07-29T10:54:45;1.60;;;1.50;;
29954;SDS011;68448;51.188;6.868;2023-07-29T10:57:13;2.53;;;1.60;;
29954;SDS011;68448;51.188;6.868;2023-07-29T10:59:40;1.90;;;1.77;;
29954;SDS011;68448;51.188;6.868;2023-07-29T11:02:17;2.70;;;1.83;;
29954;SDS011;68448;51.188;6.868;2023-07-29T11:04:47;1.83;;;1.70;;
29954;SDS011;68448;51.188;6.868;2023-07-29T11:07:19;1.80;;;1.50;;
29954;SDS011;68448;51.188;6.868;2023-07-29T11:09:52;1.83;;;1.70;;
29954;SDS011;68448;51.188;6.868;2023-07-29T11:15:20;1.87;;;1.63;;
29954;SDS011;68448;51.188;6.868;2023-07-29T11:17:48;2.60;;;1.73;;
29954;SDS011;68448;51.188;6.868;2023-07-29T11:20:16;2.43;;;2.23;;
29954;SDS011;68448;51.188;6.868;2023-07-29T11:22:43;1.87;;;1.57;;
29954;SDS011;68448;51.188;6.868;2023-07-29T11:25:12;1.73;;;1.63;;
29954;SDS011;68448;51.188;6.868;2023-07-29T11:27:40;2.50;;;1.57;;
29954;SDS011;68448;51.188;6.868;2023-07-29T11:30:07;2.47;;;1.67;;
29954;SDS011;68448;51.188;6.868;2023-07-29T11:32:35;1.63;;;1.53;;
29954;SDS011;68448;51.188;6.868;2023-07-29T11:35:03;3.70;;;2.00;;
29954;SDS011;68448;51.188;6.868;2023-07-29T11:37:30;2.40;;;2.00;;
29954;SDS011;68448;51.188;6.868;2023-07-29T11:39:57;1.73;;;1.50;;
29954;SDS011;68448;51.188;6.868;2023-07-29T11:42:26;2.47;;;1.77;;
29954;SDS011;68448;51.188;6.868;2023-07-29T11:44:55;2.10;;;1.60;;
29954;SDS011;68448;51.188;6.868;2023-07-29T11:47:22;1.40;;;1.30;;
29954;SDS011;68448;51.188;6.868;2023-07-29T11:49:50;2.00;;;1.80;;
29954;SDS011;68448;51.188;6.868;2023-07-29T11:52:17;1.50;;;1.40;;
29954;SDS011;68448;51.188;6.868;2023-07-29T11:54:46;2.80;;;1.70;;
29954;SDS011;68448;51.188;6.868;2023-07-29T11:57:13;1.90;;;1.77;;
29954;SDS011;68448;51.188;6.868;2023-07-29T11:59:42;4.47;;;1.83;;
29954;SDS011;68448;51.188;6.868;2023-07-29T12:02:09;2.80;;;1.80;;
29954;SDS011;68448;51.188;6.868;2023-07-29T12:04:37;2.80;;;2.20;;
29954;SDS011;68448;51.188;6.868;2023-07-29T12:07:05;2.20;;;1.90;;
29954;SDS011;68448;51.188;6.868;2023-07-29T12:09:32;2.10;;;1.53;;
29954;SDS011;68448;51.188;6.868;2023-07-29T12:12:01;2.23;;;1.90;;
29954;SDS011;68448;51.188;6.868;2023-07-29T12:14:29;2.13;;;1.60;;
29954;SDS011;68448;51.188;6.868;2023-07-29T12:16:59;1.73;;;1.63;;
29954;SDS011;68448;51.188;6.868;2023-07-29T12:19:31;2.53;;;1.63;;
29954;SDS011;68448;51.188;6.868;2023-07-29T12:21:58;2.13;;;1.60;;
29954;SDS011;68448;51.188;6.868;2023-07-29T12:24:25;2.20;;;1.77;;
29954;SDS011;68448;51.188;6.868;2023-07-29T12:26:52;2.03;;;1.83;;
29954;SDS011;68448;51.188;6.868;2023-07-29T12:29:19;4.57;;;1.70;;
29954;SDS011;68448;51.188;6.868;2023-07-29T12:31:46;1.53;;;1.43;;
29954;SDS011;68448;51.188;6.868;2023-07-29T12:34:18;2.00;;;1.80;;
29954;SDS011;68448;51.188;6.868;2023-07-29T12:36:46;1.67;;;1.57;;
29954;SDS011;68448;51.188;6.868;2023-07-29T12:39:17;1.92;;;1.75;;
29954;SDS011;68448;51.188;6.868;2023-07-29T12:41:44;2.00;;;1.90;;
29954;SDS011;68448;51.188;6.868;2023-07-29T12:44:11;2.80;;;1.67;;
29954;SDS011;68448;51.188;6.868;2023-07-29T12:46:42;5.28;;;2.08;;
29954;SDS011;68448;51.188;6.868;2023-07-29T12:49:09;1.90;;;1.70;;
29954;SDS011;68448;51.188;6.868;2023-07-29T12:51:37;2.70;;;1.73;;
29954;SDS011;68448;51.188;6.868;2023-07-29T12:54:05;1.75;;;1.65;;
29954;SDS011;68448;51.188;6.868;2023-07-29T12:56:32;2.65;;;2.28;;
29954;SDS011;68448;51.188;6.868;2023-07-29T12:59:00;4.22;;;1.80;;
29954;SDS011;68448;51.188;6.868;2023-07-29T13:01:27;2.22;;;1.85;;
29954;SDS011;68448;51.188;6.868;2023-07-29T13:03:55;2.13;;;1.93;;
29954;SDS011;68448;51.188;6.868;2023-07-29T13:06:22;1.73;;;1.50;;
29954;SDS011;68448;51.188;6.868;2023-07-29T13:08:50;1.73;;;1.63;;
29954;SDS011;68448;51.188;6.868;2023-07-29T13:11:17;3.53;;;1.90;;
29954;SDS011;68448;51.188;6.868;2023-07-29T13:13:45;3.83;;;1.53;;
29954;SDS011;68448;51.188;6.868;2023-07-29T13:16:12;4.70;;;2.30;;
29954;SDS011;68448;51.188;6.868;2023-07-29T13:18:39;1.87;;;1.70;;
29954;SDS011;68448;51.188;6.868;2023-07-29T13:21:06;2.13;;;1.93;;
29954;SDS011;68448;51.188;6.868;2023-07-29T13:23:34;1.90;;;1.80;;
29954;SDS011;68448;51.188;6.868;2023-07-29T13:26:02;1.87;;;1.50;;
29954;SDS011;68448;51.188;6.868;2023-07-29T13:28:29;2.20;;;1.80;;
29954;SDS011;68448;51.188;6.868;2023-07-29T13:30:56;9.13;;;2.00;;
29954;SDS011;68448;51.188;6.868;2023-07-29T13:33:23;2.03;;;1.70;;
29954;SDS011;68448;51.188;6.868;2023-07-29T13:35:51;3.20;;;1.90;;
29954;SDS011;68448;51.188;6.868;2023-07-29T13:38:18;2.40;;;1.83;;
29954;SDS011;68448;51.188;6.868;2023-07-29T13:40:45;5.73;;;2.57;;
29954;SDS011;68448;51.188;6.868;2023-07-29T13:43:13;2.07;;;1.90;;
29954;SDS011;68448;51.188;6.868;2023-07-29T13:45:40;3.30;;;2.20;;
29954;SDS011;68448;51.188;6.868;2023-07-29T13:48:07;2.90;;;2.10;;
29954;SDS011;68448;51.188;6.868;2023-07-29T13:50:35;5.20;;;2.40;;
29954;SDS011;68448;51.188;6.868;2023-07-29T13:53:02;4.27;;;2.07;;
29954;SDS011;68448;51.188;6.868;2023-07-29T13:55:29;2.00;;;1.90;;
29954;SDS011;68448;51.188;6.868;2023-07-29T13:57:56;2.73;;;2.20;;
29954;SDS011;68448;51.188;6.868;2023-07-29T14:00:25;2.67;;;2.10;;
29954;SDS011;68448;51.188;6.868;2023-07-29T14:02:52;2.17;;;1.97;;
29954;SDS011;68448;51.188;6.868;2023-07-29T14:05:19;2.77;;;2.33;;
29954;SDS011;68448;51.188;6.868;2023-07-29T14:07:46;3.07;;;2.70;;
29954;SDS011;68448;51.188;6.868;2023-07-29T14:10:13;2.50;;;2.30;;
29954;SDS011;68448;51.188;6.868;2023-07-29T14:12:40;5.00;;;2.10;;
29954;SDS011;68448;51.188;6.868;2023-07-29T14:15:07;2.67;;;2.10;;
29954;SDS011;68448;51.188;6.868;2023-07-29T14:17:36;2.80;;;2.37;;
29954;SDS011;68448;51.188;6.868;2023-07-29T14:20:03;2.50;;;2.07;;
29954;SDS011;68448;51.188;6.868;2023-07-29T14:22:31;2.20;;;2.00;;
29954;SDS011;68448;51.188;6.868;2023-07-29T14:24:58;3.57;;;2.70;;
29954;SDS011;68448;51.188;6.868;2023-07-29T14:27:26;3.20;;;2.40;;
29954;SDS011;68448;51.188;6.868;2023-07-29T14:29:53;3.13;;;2.37;;
29954;SDS011;68448;51.188;6.868;2023-07-29T14:32:21;3.90;;;3.00;;
29954;SDS011;68448;51.188;6.868;2023-07-29T14:34:50;4.00;;;3.00;;
29954;SDS011;68448;51.188;6.868;2023-07-29T14:37:17;2.90;;;2.70;;
29954;SDS011;68448;51.188;6.868;2023-07-29T14:39:44;5.03;;;2.40;;
29954;SDS011;68448;51.188;6.868;2023-07-29T14:42:11;3.13;;;2.80;;
29954;SDS011;68448;51.188;6.868;2023-07-29T14:44:38;3.90;;;2.80;;
29954;SDS011;68448;51.188;6.868;2023-07-29T14:47:07;2.87;;;2.23;;
29954;SDS011;68448;51.188;6.868;2023-07-29T14:49:34;5.67;;;2.27;;
29954;SDS011;68448;51.188;6.868;2023-07-29T14:52:02;3.00;;;2.60;;
29954;SDS011;68448;51.188;6.868;2023-07-29T14:54:30;2.93;;;2.63;;
29954;SDS011;68448;51.188;6.868;2023-07-29T14:56:57;3.60;;;2.27;;